Time;durP1;ratioP1;P1;durP2;ratioP2;P2;SDS_P1;SDS_P2;PMS_P1;PMS_P2;Temp;Humidity;BMP_temperature;BMP_pressure;BME280_temperature;BME280_humidity;BME280_pressure;Samples;Min_cycle;Max_cycle;Signal;HPM_P1;HPM_P2
2022/01/08 00:00:15;;;;;;;5.97;1.58;;;;;;;-6.71;79.14;99285.13;5093067;28;20032;-68
2022/01/08 00:02:41;;;;;;;7.30;2.28;;;;;;;-6.72;79.66;99302.66;5093060;28;20047;-69
2022/01/08 00:05:08;;;;;;;7.53;2.03;;;;;;;-6.80;79.25;99299.41;5093053;28;20107;-68
2022/01/08 00:07:34;;;;;;;6.53;1.90;;;;;;;-6.76;79.99;99319.44;5076316;28;20036;-69
2022/01/08 00:09:59;;;;;;;6.53;2.08;;;;;;;-6.81;79.24;99308.22;5092752;28;20507;-68
2022/01/08 00:12:25;;;;;;;6.95;1.88;;;;;;;-6.81;79.90;99308.22;5110217;28;20054;-69
2022/01/08 00:14:51;;;;;;;7.20;1.85;;;;;;;-6.94;79.00;99292.00;5111100;28;20039;-68
2022/01/08 00:17:17;;;;;;;8.38;1.70;;;;;;;-6.77;79.02;99315.06;5092659;28;20576;-68
2022/01/08 00:19:43;;;;;;;6.85;1.92;;;;;;;-6.78;79.25;99313.38;5092695;28;20051;-67
2022/01/08 00:22:11;;;;;;;6.25;1.63;;;;;;;-6.77;78.68;99309.81;5092813;28;20039;-69
2022/01/08 00:24:37;;;;;;;7.78;2.15;;;;;;;-6.70;77.58;99316.59;5092962;28;20051;-68
2022/01/08 00:27:04;;;;;;;7.20;1.83;;;;;;;-6.75;77.18;99318.53;5109904;28;20050;-67
2022/01/08 00:29:30;;;;;;;7.40;2.20;;;;;;;-6.70;77.79;99326.25;5093344;28;20096;-67
2022/01/08 00:31:55;;;;;;;6.60;1.80;;;;;;;-6.95;76.52;99292.03;5092498;28;20039;-66
2022/01/08 00:34:21;;;;;;;6.05;1.70;;;;;;;-6.71;76.45;99325.41;5092591;28;20105;-68
2022/01/08 00:36:47;;;;;;;7.15;1.60;;;;;;;-6.69;75.77;99320.97;5111304;28;20126;-68
2022/01/08 00:39:13;;;;;;;6.25;1.85;;;;;;;-6.82;75.68;99296.00;5075725;28;20069;-67
2022/01/08 00:41:38;;;;;;;3.85;1.08;;;;;;;-6.55;75.08;99337.09;5111174;28;20423;-67
2022/01/08 00:44:04;;;;;;;7.15;1.60;;;;;;;-6.62;74.48;99335.59;5092556;28;20100;-68
2022/01/08 00:46:30;;;;;;;6.53;1.58;;;;;;;-6.60;74.25;99353.94;5093110;28;20089;-68
2022/01/08 00:48:56;;;;;;;6.57;1.58;;;;;;;-6.65;74.06;99351.47;5111323;28;20078;-68
2022/01/08 00:51:21;;;;;;;9.32;1.90;;;;;;;-6.63;74.28;99354.91;5076437;28;20075;-67
2022/01/08 00:53:47;;;;;;;5.07;1.38;;;;;;;-6.58;73.00;99357.38;5111059;28;20071;-68
2022/01/08 00:56:14;;;;;;;4.70;1.30;;;;;;;-6.67;72.75;99349.81;5111328;28;20036;-69
2022/01/08 00:58:41;;;;;;;5.78;1.70;;;;;;;-6.59;72.60;99372.28;5112843;28;20043;-68
2022/01/08 01:01:07;;;;;;;5.65;1.73;;;;;;;-6.66;73.66;99381.28;5111875;28;20073;-68
2022/01/08 01:03:33;;;;;;;7.30;1.60;;;;;;;-6.93;73.92;99340.16;5093776;28;20056;-69
2022/01/08 01:05:59;;;;;;;5.68;1.40;;;;;;;-6.79;73.24;99358.97;5112239;28;20404;-69
2022/01/08 01:08:25;;;;;;;4.82;1.35;;;;;;;-6.58;73.56;99387.16;5093454;28;20475;-69
2022/01/08 01:10:51;;;;;;;6.35;2.00;;;;;;;-6.57;73.56;99390.66;5058950;28;20446;-66
2022/01/08 01:13:17;;;;;;;5.65;1.45;;;;;;;-6.86;72.26;99358.28;5075484;28;20043;-68
2022/01/08 01:15:43;;;;;;;4.63;1.30;;;;;;;-6.57;72.93;99406.44;5109936;28;20138;-67
2022/01/08 01:18:09;;;;;;;7.30;1.83;;;;;;;-6.58;72.87;99402.94;5096118;28;20043;-68
2022/01/08 01:20:35;;;;;;;7.05;1.90;;;;;;;-6.80;72.53;99370.34;5114617;28;20089;-67
2022/01/08 01:23:14;;;;;;;5.72;1.50;;;;;;;-6.53;71.43;99413.28;5114937;28;20059;-68
2022/01/08 01:25:49;;;;;;;5.57;1.45;;;;;;;-6.59;71.87;99409.09;5081249;28;20442;-67
2022/01/08 01:28:36;;;;;;;7.43;1.70;;;;;;;-6.61;72.12;99410.91;5114845;28;20146;-67
2022/01/08 01:47:10;;;;;;;6.45;1.60;;;;;;;-6.78;72.79;99421.13;5117256;28;20455;-67
2022/01/08 01:49:39;;;;;;;4.25;1.15;;;;;;;-6.59;72.64;99445.88;5115170;28;20043;-67
2022/01/08 01:52:06;;;;;;;6.03;1.20;;;;;;;-6.58;72.46;99457.25;5129571;27;20047;-66
2022/01/08 01:54:33;;;;;;;6.97;1.27;;;;;;;-6.63;72.71;99457.41;5095663;28;20055;-68
2022/01/08 01:57:00;;;;;;;5.05;1.45;;;;;;;-6.59;72.74;99461.66;5129370;27;20083;-67
2022/01/08 01:59:27;;;;;;;7.25;1.60;;;;;;;-6.60;71.63;99459.94;5113629;28;20070;-67
2022/01/08 02:01:53;;;;;;;6.32;1.58;;;;;;;-6.62;72.59;99476.66;5113799;28;20048;-67
2022/01/08 02:04:19;;;;;;;4.22;1.20;;;;;;;-6.61;73.30;99484.53;5095096;28;20569;-67
2022/01/08 02:06:45;;;;;;;5.57;1.55;;;;;;;-6.61;71.98;99479.28;5113739;28;20406;-66
2022/01/08 02:09:11;;;;;;;4.78;1.33;;;;;;;-6.64;72.29;99487.25;5112127;28;20081;-66
2022/01/08 02:11:55;;;;;;;9.77;1.30;;;;;;;-6.91;72.24;99422.41;5095312;28;20503;-68
2022/01/08 02:14:21;;;;;;;6.25;1.50;;;;;;;-6.62;72.72;99493.34;5113645;28;20040;-67
2022/01/08 02:16:48;;;;;;;5.25;1.42;;;;;;;-6.69;73.18;99504.94;5113806;28;20049;-67
2022/01/08 02:19:13;;;;;;;5.22;1.45;;;;;;;-6.71;73.54;99504.13;5113758;28;20043;-67
2022/01/08 02:21:48;;;;;;;6.72;1.60;;;;;;;-6.67;73.31;99516.25;5113311;28;20050;-67
2022/01/08 02:24:14;;;;;;;5.43;1.60;;;;;;;-6.68;73.89;99514.53;5113596;28;20128;-66
2022/01/08 02:26:41;;;;;;;7.25;2.03;;;;;;;-6.85;74.15;99490.53;5113166;28;20459;-67
2022/01/08 02:29:10;;;;;;;5.53;1.63;;;;;;;-6.58;74.37;99521.25;5113417;28;20069;-66
2022/01/08 02:31:36;;;;;;;7.38;1.58;;;;;;;-6.56;74.64;99519.41;5113582;28;20035;-67
2022/01/08 02:34:04;;;;;;;6.13;1.45;;;;;;;-6.52;74.07;99529.84;5113089;28;20040;-67
2022/01/08 02:36:30;;;;;;;6.10;1.33;;;;;;;-6.56;74.26;99522.03;5096513;28;20063;-66
2022/01/08 02:38:56;;;;;;;7.20;1.55;;;;;;;-6.66;74.15;99504.81;5079331;28;20047;-67
2022/01/08 02:41:22;;;;;;;6.75;1.65;;;;;;;-6.58;74.98;99531.75;5115290;28;20043;-66
2022/01/08 02:43:52;;;;;;;5.85;1.50;;;;;;;-6.88;75.14;99490.63;5117354;28;20540;-67
2022/01/08 02:46:18;;;;;;;;;;;;;;;-6.65;75.20;99553.88;5117557;28;20483;-68
2022/01/08 02:48:44;;;;;;;6.22;1.52;;;;;;;-6.71;75.44;99550.56;5117828;28;19919;-67
2022/01/08 02:51:10;;;;;;;5.68;1.27;;;;;;;-6.77;75.44;99535.81;5098883;28;20059;-66
2022/01/08 02:53:35;;;;;;;9.15;1.92;;;;;;;-6.74;75.13;99551.50;5112805;28;20047;-67
2022/01/08 02:56:01;;;;;;;6.55;1.63;;;;;;;-6.63;76.36;99570.44;5112877;28;20455;-67
2022/01/08 02:58:28;;;;;;;6.20;1.80;;;;;;;-6.60;76.68;99575.63;5094711;28;20491;-67
2022/01/08 03:00:57;;;;;;;6.53;1.80;;;;;;;-6.63;76.37;99588.00;5112780;28;20082;-66
2022/01/08 03:03:23;;;;;;;8.43;1.95;;;;;;;-6.66;76.33;99586.31;5112651;28;20039;-68
2022/01/08 03:05:49;;;;;;;7.63;1.98;;;;;;;-6.69;77.26;99596.94;5112643;28;20455;-66
2022/01/08 03:08:15;;;;;;;7.28;2.35;;;;;;;-6.95;77.38;99557.41;5111765;28;20463;-67
2022/01/08 03:10:41;;;;;;;6.15;1.55;;;;;;;-6.73;77.12;99600.53;5130559;27;20047;-67
2022/01/08 03:13:07;;;;;;;10.30;2.13;;;;;;;-6.73;78.33;99603.16;5115328;28;20088;-67
2022/01/08 03:15:35;;;;;;;6.03;1.88;;;;;;;-6.85;77.73;99596.50;5113588;28;20081;-67
2022/01/08 03:18:04;;;;;;;7.47;2.20;;;;;;;-6.90;79.10;99597.56;5112336;28;20181;-66
2022/01/08 03:20:30;;;;;;;7.18;1.63;;;;;;;-6.85;78.90;99616.66;5111618;28;20174;-66
2022/01/08 03:23:03;;;;;;;8.15;2.13;;;;;;;-7.02;79.66;99590.84;5076361;28;20039;-66
2022/01/08 03:25:30;;;;;;;9.43;2.53;;;;;;;-6.87;79.84;99608.84;5094985;28;20047;-66
2022/01/08 03:27:56;;;;;;;8.25;2.22;;;;;;;-6.88;79.59;99616.75;5092682;28;20488;-66
2022/01/08 03:30:24;;;;;;;7.70;1.83;;;;;;;-6.82;80.51;99627.09;5111335;28;20044;-68
2022/01/08 03:32:52;;;;;;;6.68;1.92;;;;;;;-6.82;81.18;99629.72;5092988;28;20048;-68
2022/01/08 03:35:18;;;;;;;7.32;2.17;;;;;;;-6.92;81.47;99615.13;5111242;28;20052;-67
2022/01/08 03:37:44;;;;;;;5.43;1.45;;;;;;;-6.86;82.09;99631.56;5110653;28;20051;-68
2022/01/08 03:40:10;;;;;;;6.35;1.83;;;;;;;-6.81;82.30;99636.69;5075289;28;20043;-68
2022/01/08 03:42:36;;;;;;;8.40;2.13;;;;;;;-6.92;82.57;99625.63;5110883;28;20122;-68
2022/01/08 03:45:02;;;;;;;5.95;1.73;;;;;;;-6.91;82.33;99632.59;5092779;28;20047;-68
2022/01/08 03:47:42;;;;;;;8.60;1.90;;;;;;;-7.04;82.98;99605.81;5093425;28;20054;-67
2022/01/08 03:50:08;;;;;;;6.53;1.88;;;;;;;-6.83;83.29;99630.63;5110024;28;20109;-67
2022/01/08 03:52:34;;;;;;;7.85;1.80;;;;;;;-7.00;83.66;99596.94;5109866;28;20050;-68
2022/01/08 03:55:00;;;;;;;8.10;1.98;;;;;;;-6.92;83.81;99599.34;5111231;28;20413;-67
2022/01/08 03:57:26;;;;;;;7.20;2.25;;;;;;;-6.89;84.78;99620.28;5092744;28;20039;-67
2022/01/08 03:59:51;;;;;;;5.47;1.55;;;;;;;-6.78;85.82;99633.97;5126899;27;20530;-68
2022/01/08 04:02:17;;;;;;;8.32;1.92;;;;;;;-6.75;86.55;99652.31;5110839;28;20150;-67
2022/01/08 04:04:43;;;;;;;5.60;1.60;;;;;;;-6.79;87.02;99653.28;5111312;28;20098;-68
2022/01/08 04:07:09;;;;;;;6.22;1.63;;;;;;;-6.88;88.04;99649.13;5075765;28;20096;-67
2022/01/08 04:09:34;;;;;;;7.50;1.95;;;;;;;-6.87;87.95;99660.53;5092536;28;20396;-67
2022/01/08 04:12:02;;;;;;;6.70;1.90;;;;;;;-6.81;88.80;99660.34;5092709;28;20146;-68
2022/01/08 04:14:35;;;;;;;5.95;1.73;;;;;;;-6.81;88.45;99657.72;5110944;28;20051;-67
2022/01/08 04:17:01;;;;;;;5.18;1.63;;;;;;;-6.67;88.30;99658.19;5092702;28;20047;-67
2022/01/08 04:19:27;;;;;;;9.05;2.42;;;;;;;-6.71;88.83;99672.34;5092618;28;20559;-68
2022/01/08 04:21:59;;;;;;;6.75;1.90;;;;;;;-6.73;88.35;99671.50;5110984;28;20090;-68
2022/01/08 04:24:27;;;;;;;7.53;2.17;;;;;;;-6.76;87.97;99670.72;5108640;28;20118;-69
2022/01/08 04:26:52;;;;;;;7.15;1.80;;;;;;;-6.76;87.92;99684.75;5092842;28;20039;-68
2022/01/08 04:29:18;;;;;;;8.45;2.00;;;;;;;-6.77;87.64;99672.50;5075700;28;20055;-68
2022/01/08 04:31:44;;;;;;;7.43;1.92;;;;;;;-6.84;87.14;99671.81;5092443;28;20134;-68
2022/01/08 04:34:10;;;;;;;6.60;1.80;;;;;;;-6.71;87.58;99688.09;5110458;28;20051;-69
2022/01/08 04:36:35;;;;;;;7.00;2.08;;;;;;;-7.00;87.73;99643.38;5110847;28;20210;-68
2022/01/08 04:39:01;;;;;;;8.27;2.08;;;;;;;-6.81;86.65;99670.84;5075801;28;20105;-68
2022/01/08 04:41:27;;;;;;;5.78;1.55;;;;;;;-7.00;87.08;99638.13;5110719;28;20447;-68
2022/01/08 04:43:53;;;;;;;6.90;1.50;;;;;;;-6.74;86.90;99682.06;5092165;28;20545;-68
2022/01/08 04:46:18;;;;;;;6.40;1.90;;;;;;;-7.08;85.55;99631.31;5075776;28;20067;-68
2022/01/08 04:48:44;;;;;;;6.50;1.75;;;;;;;-6.71;86.07;99701.25;5109659;28;20524;-68
2022/01/08 04:51:10;;;;;;;9.25;1.77;;;;;;;-6.71;85.94;99688.09;5078682;28;20139;-67
2022/01/08 04:53:36;;;;;;;8.18;1.98;;;;;;;-6.67;85.03;99705.50;5096482;28;20032;-68
2022/01/08 04:56:02;;;;;;;6.22;1.70;;;;;;;-6.70;85.45;99705.59;5113826;28;20407;-68
2022/01/08 04:58:28;;;;;;;7.15;2.10;;;;;;;-6.69;84.34;99704.72;5115163;28;20495;-68
2022/01/08 05:00:54;;;;;;;7.25;1.60;;;;;;;-6.65;84.22;99716.84;5114600;28;20411;-68
2022/01/08 05:03:20;;;;;;;8.50;1.60;;;;;;;-6.68;84.36;99719.56;5096588;28;20183;-68
2022/01/08 05:05:46;;;;;;;6.80;1.60;;;;;;;-6.64;84.57;99721.19;5115502;28;20055;-67
2022/01/08 05:08:12;;;;;;;7.10;1.40;;;;;;;-6.66;84.67;99723.00;5063550;28;20131;-68
2022/01/08 05:10:38;;;;;;;7.45;1.70;;;;;;;-6.67;85.28;99725.69;5096873;28;20040;-68
2022/01/08 05:13:05;;;;;;;9.40;1.40;;;;;;;-6.68;85.45;99724.81;5096096;28;20088;-68
2022/01/08 05:15:32;;;;;;;5.53;1.50;;;;;;;-6.92;85.42;99693.94;5113644;28;20051;-68
2022/01/08 05:17:58;;;;;;;8.18;1.55;;;;;;;-6.68;85.02;99735.34;5096388;28;20418;-68
2022/01/08 05:20:27;;;;;;;6.50;1.88;;;;;;;-6.68;85.21;99745.84;5078779;28;20054;-66
2022/01/08 05:22:59;;;;;;;4.78;1.40;;;;;;;-6.85;85.24;99711.25;5114256;28;20115;-67
2022/01/08 05:25:26;;;;;;;5.88;1.70;;;;;;;-6.62;85.84;99750.94;5114362;28;20051;-67
2022/01/08 05:27:52;;;;;;;5.75;1.60;;;;;;;-6.59;85.74;99758.72;5113548;28;20040;-67
2022/01/08 05:30:19;;;;;;;8.68;2.10;;;;;;;-6.52;86.52;99755.94;5078907;28;20124;-70
2022/01/08 05:32:45;;;;;;;6.13;1.73;;;;;;;-6.71;86.33;99738.03;5113976;28;20522;-68
2022/01/08 05:35:11;;;;;;;7.40;2.00;;;;;;;-6.57;85.79;99762.19;5114442;28;20122;-68
2022/01/08 05:37:37;;;;;;;7.40;2.00;;;;;;;-6.72;86.03;99736.31;5095587;28;20061;-69
2022/01/08 05:40:03;;;;;;;9.07;2.45;;;;;;;-6.43;86.67;99771.50;5078999;28;20043;-66
2022/01/08 05:42:29;;;;;;;8.45;2.00;;;;;;;-6.49;86.25;99776.91;5096071;28;20044;-68
2022/01/08 05:44:55;;;;;;;6.10;1.48;;;;;;;-6.75;85.87;99749.53;5114269;28;20055;-69
2022/01/08 05:47:21;;;;;;;6.75;1.52;;;;;;;-6.48;87.14;99790.00;5078684;28;20084;-68
2022/01/08 05:49:47;;;;;;;7.53;1.70;;;;;;;-6.47;86.69;99788.22;5114400;28;20162;-68
2022/01/08 05:52:13;;;;;;;6.53;1.60;;;;;;;-6.52;87.23;99795.38;5079058;28;20035;-68
2022/01/08 05:54:39;;;;;;;7.68;1.70;;;;;;;-6.51;87.79;99807.63;5078798;28;20044;-67
2022/01/08 05:57:06;;;;;;;10.57;1.58;;;;;;;-6.47;88.31;99811.88;5112827;28;20047;-68
2022/01/08 05:59:32;;;;;;;7.20;1.75;;;;;;;-6.49;88.28;99800.56;5078285;28;20066;-68
2022/01/08 06:01:58;;;;;;;6.50;1.60;;;;;;;-6.46;87.96;99805.75;5077975;28;20051;-68
2022/01/08 06:04:24;;;;;;;6.68;1.67;;;;;;;-6.49;88.89;99811.09;5095255;28;20151;-69
2022/01/08 06:06:50;;;;;;;5.93;1.55;;;;;;;-6.42;88.66;99807.38;5078614;28;20122;-68
2022/01/08 06:09:16;;;;;;;6.03;1.52;;;;;;;-6.43;88.34;99808.31;5078515;28;20173;-68
2022/01/08 06:11:42;;;;;;;7.20;1.80;;;;;;;-6.45;88.30;99816.22;5095184;28;20502;-68
2022/01/08 06:14:08;;;;;;;6.25;1.65;;;;;;;-6.38;88.71;99822.19;5077786;28;20051;-68
2022/01/08 06:16:35;;;;;;;5.70;1.58;;;;;;;-6.36;88.16;99823.88;5112034;28;20040;-68
2022/01/08 06:19:07;;;;;;;9.30;1.48;;;;;;;-6.26;87.75;99837.63;5077659;28;20082;-69
2022/01/08 06:21:33;;;;;;;7.47;1.90;;;;;;;-6.39;87.66;99828.34;5112716;28;20047;-69
2022/01/08 06:23:59;;;;;;;8.43;1.77;;;;;;;-6.23;87.42;99855.09;5094755;28;20043;-69
2022/01/08 06:26:25;;;;;;;7.72;2.10;;;;;;;-6.31;88.52;99844.78;5112630;28;20043;-69
2022/01/08 06:28:51;;;;;;;7.13;1.83;;;;;;;-6.25;88.56;99852.50;5078000;28;20518;-68
2022/01/08 06:31:19;;;;;;;6.35;1.73;;;;;;;-6.26;88.66;99863.91;5112982;28;20625;-68
2022/01/08 06:33:45;;;;;;;6.03;1.83;;;;;;;-6.33;88.89;99851.84;5112798;28;20138;-68
2022/01/08 06:36:12;;;;;;;6.45;1.63;;;;;;;-6.22;89.02;99857.66;5077420;28;20121;-69
2022/01/08 06:38:37;;;;;;;4.80;1.10;;;;;;;-6.18;89.72;99867.22;5113284;28;20123;-71
2022/01/08 06:41:03;;;;;;;7.70;1.70;;;;;;;-6.19;89.50;99870.75;5094950;28;20432;-68
2022/01/08 06:43:29;;;;;;;5.88;1.50;;;;;;;-6.16;89.97;99875.94;5094879;28;20067;-69
2022/01/08 06:45:55;;;;;;;6.10;1.60;;;;;;;-6.13;89.87;99889.00;5094610;28;20074;-69
2022/01/08 06:48:21;;;;;;;5.85;1.30;;;;;;;-6.15;88.66;99876.78;5094417;28;20522;-69
2022/01/08 06:50:46;;;;;;;8.45;1.50;;;;;;;-6.05;87.51;99888.81;5094332;28;20438;-68
2022/01/08 06:53:12;;;;;;;7.15;1.50;;;;;;;-6.02;86.64;99883.47;5077751;28;20054;-69
2022/01/08 06:55:38;;;;;;;8.13;1.50;;;;;;;-6.08;84.01;99879.22;5112825;28;20445;-68
2022/01/08 06:58:04;;;;;;;5.15;1.17;;;;;;;-5.86;82.42;99889.13;5077458;28;20079;-69
2022/01/08 07:00:30;;;;;;;5.57;1.48;;;;;;;-5.79;81.88;99882.78;5094429;28;20070;-68
2022/01/08 07:02:56;;;;;;;8.00;1.60;;;;;;;-5.73;81.17;99877.34;5077482;28;20476;-69
2022/01/08 07:05:21;;;;;;;6.47;1.30;;;;;;;-5.93;80.88;99834.97;5094067;28;20376;-69
2022/01/08 07:07:47;;;;;;;6.30;1.50;;;;;;;-5.54;79.78;99895.25;5112215;28;20052;-69
2022/01/08 07:10:13;;;;;;;7.70;1.80;;;;;;;-5.46;77.68;99899.38;5094505;28;20085;-68
2022/01/08 07:12:39;;;;;;;6.10;1.60;;;;;;;-5.39;77.84;99900.06;5110886;28;20039;-69
2022/01/08 07:15:05;;;;;;;10.85;1.90;;;;;;;-5.43;77.57;99908.97;5111733;28;20043;-69
2022/01/08 07:17:31;;;;;;;8.48;2.05;;;;;;;-5.43;76.62;99915.09;5077430;28;20067;-69
2022/01/08 07:19:57;;;;;;;8.70;2.40;;;;;;;-5.51;76.42;99903.06;5112139;28;20260;-68
2022/01/08 07:22:23;;;;;;;6.72;1.70;;;;;;;-5.48;75.75;99916.16;5112148;28;20322;-69
2022/01/08 07:24:49;;;;;;;9.45;2.03;;;;;;;-5.59;76.26;99909.41;5109937;28;20100;-68
2022/01/08 07:27:14;;;;;;;8.73;2.20;;;;;;;-5.61;75.03;99913.84;5060306;28;20036;-69
2022/01/08 07:29:40;;;;;;;7.38;1.50;;;;;;;-5.58;74.83;99913.78;5074479;28;20399;-69
2022/01/08 07:32:06;;;;;;;8.00;1.90;;;;;;;-5.45;75.36;99919.53;5059290;28;20039;-68
2022/01/08 07:34:32;;;;;;;8.07;1.83;;;;;;;-5.73;75.12;99868.59;5092355;28;20090;-68
2022/01/08 07:36:58;;;;;;;7.05;1.70;;;;;;;-5.50;74.31;99907.41;5093158;28;20079;-68
2022/01/08 07:39:23;;;;;;;7.55;2.08;;;;;;;-5.36;73.91;99921.06;5085130;28;20043;-68
2022/01/08 07:41:49;;;;;;;5.85;1.45;;;;;;;-5.20;74.09;99932.00;5034427;28;20060;-69
2022/01/08 07:44:20;;;;;;;5.20;1.33;;;;;;;-5.29;74.29;99933.13;5050895;28;20551;-66
2022/01/08 07:46:46;;;;;;;7.10;1.50;;;;;;;-5.27;75.47;99941.84;5036222;28;20087;-68
2022/01/08 07:49:12;;;;;;;6.78;1.58;;;;;;;-5.26;74.90;99943.59;5072649;28;20101;-70
2022/01/08 07:51:37;;;;;;;7.10;1.40;;;;;;;-5.22;74.57;99947.00;5069175;28;20045;-70
2022/01/08 07:54:03;;;;;;;7.60;1.40;;;;;;;-5.20;74.02;99932.84;5088039;28;20048;-70
2022/01/08 07:56:29;;;;;;;7.15;1.80;;;;;;;-5.19;74.41;99947.78;5057115;28;20492;-69
2022/01/08 07:58:55;;;;;;;7.00;2.05;;;;;;;-4.53;72.15;99886.81;5014978;28;20041;-68
2022/01/08 08:01:21;;;;;;;5.68;1.77;;;;;;;-0.78;59.41;99933.41;5047159;28;20120;-66
2022/01/08 08:03:48;;;;;;;8.65;2.20;;;;;;;0.44;56.28;99938.88;5064900;28;20102;-66
2022/01/08 08:06:14;;;;;;;7.00;1.60;;;;;;;1.15;52.97;99952.78;5071381;28;20123;-66
2022/01/08 08:08:40;;;;;;;7.32;1.83;;;;;;;0.45;52.79;99956.56;5076646;28;20465;-70
2022/01/08 08:11:06;;;;;;;8.43;2.85;;;;;;;1.08;51.49;99903.47;5082489;28;20040;-68
2022/01/08 08:13:32;;;;;;;7.63;1.70;;;;;;;2.92;48.17;99959.31;5023477;28;20127;-68
2022/01/08 08:15:58;;;;;;;6.45;1.90;;;;;;;4.71;46.42;99970.75;5055787;28;20411;-70
2022/01/08 08:18:24;;;;;;;6.85;1.88;;;;;;;4.50;45.60;99963.25;5040318;28;20048;-69
2022/01/08 08:20:50;;;;;;;5.85;2.13;;;;;;;4.50;43.04;99962.41;5032013;28;20151;-66
2022/01/08 08:23:15;;;;;;;6.78;1.85;;;;;;;4.77;41.97;99964.97;5052659;28;20036;-68
2022/01/08 08:25:41;;;;;;;6.82;1.70;;;;;;;4.58;42.58;99962.72;5046973;28;20488;-67
2022/01/08 08:28:07;;;;;;;7.63;2.60;;;;;;;6.16;40.04;99972.84;5013866;28;20075;-66
2022/01/08 08:30:34;;;;;;;8.73;2.08;;;;;;;5.71;39.11;99976.09;5047999;28;20408;-67
2022/01/08 08:33:00;;;;;;;8.38;2.30;;;;;;;3.28;44.38;99984.66;5055609;28;20146;-67
2022/01/08 08:35:28;;;;;;;7.97;1.95;;;;;;;4.62;42.58;99969.56;5086061;28;20544;-69
2022/01/08 08:37:54;;;;;;;9.15;2.10;;;;;;;5.10;40.72;99982.34;5055732;28;20106;-69
2022/01/08 08:40:19;;;;;;;5.40;1.73;;;;;;;4.77;41.82;99943.56;5054798;28;20048;-69
2022/01/08 08:42:45;;;;;;;8.57;2.10;;;;;;;5.81;38.94;99987.00;5040767;28;20396;-71
2022/01/08 08:45:11;;;;;;;8.10;2.35;;;;;;;6.66;37.49;99979.72;5061816;28;20075;-69
2022/01/08 08:47:39;;;;;;;6.82;2.15;;;;;;;6.80;36.55;99980.47;5059794;28;20039;-68
2022/01/08 08:50:06;;;;;;;7.28;1.85;;;;;;;6.97;36.83;99977.34;5036009;28;20523;-69
2022/01/08 08:52:33;;;;;;;7.57;2.20;;;;;;;7.55;36.12;99974.53;5051505;28;20053;-69
2022/01/08 08:54:59;;;;;;;7.85;2.35;;;;;;;6.97;35.48;99980.88;5072416;28;20096;-68
2022/01/08 08:57:25;;;;;;;7.63;2.10;;;;;;;7.28;36.04;99991.03;5069192;28;20967;-69
2022/01/08 08:59:51;;;;;;;7.40;2.17;;;;;;;6.70;36.59;99951.66;5056023;28;20093;-68
2022/01/08 09:02:17;;;;;;;6.57;2.17;;;;;;;6.66;36.25;99997.69;5064032;28;20148;-69
2022/01/08 09:04:43;;;;;;;7.05;2.00;;;;;;;5.99;37.81;100001.78;5064993;28;20045;-68
2022/01/08 09:07:09;;;;;;;9.32;2.10;;;;;;;7.48;35.71;100001.91;5056790;28;20435;-68
2022/01/08 09:09:35;;;;;;;6.00;1.98;;;;;;;6.81;36.24;100007.25;5057673;28;20067;-68
2022/01/08 09:12:01;;;;;;;8.38;2.17;;;;;;;3.26;43.37;100011.50;5063419;28;20228;-69
2022/01/08 09:14:27;;;;;;;6.05;1.40;;;;;;;0.81;48.92;100014.09;5030111;28;20169;-68
2022/01/08 09:16:57;;;;;;;7.38;1.98;;;;;;;-0.09;53.48;100032.81;5059433;28;20053;-68
2022/01/08 09:19:22;;;;;;;6.15;1.58;;;;;;;-0.62;54.83;100033.56;5058243;28;20508;-69
2022/01/08 09:21:49;;;;;;;8.52;1.60;;;;;;;-0.91;56.81;100016.34;5067067;28;20049;-67
2022/01/08 09:24:18;;;;;;;8.23;1.75;;;;;;;-1.49;57.89;100003.88;5048523;28;20412;-67
2022/01/08 09:26:45;;;;;;;8.63;1.80;;;;;;;-1.89;59.44;100016.19;5054381;28;20487;-67
2022/01/08 09:29:11;;;;;;;6.95;1.70;;;;;;;-1.79;60.02;100019.28;5051655;28;20060;-68
2022/01/08 09:31:38;;;;;;;7.72;1.75;;;;;;;-1.55;59.16;100025.34;5050018;28;20056;-68
2022/01/08 09:34:05;;;;;;;7.50;1.80;;;;;;;-1.47;59.45;100017.91;5062782;28;20035;-68
2022/01/08 09:36:31;;;;;;;6.15;1.50;;;;;;;-1.43;59.25;100003.59;5063501;28;20040;-68
2022/01/08 09:38:57;;;;;;;9.52;2.38;;;;;;;-2.02;61.16;100023.75;5065160;28;20055;-68
2022/01/08 09:41:23;;;;;;;7.78;1.45;;;;;;;-2.12;61.63;99998.59;5057941;28;20183;-68
2022/01/08 09:43:49;;;;;;;9.88;1.77;;;;;;;-1.65;61.24;100037.25;5053494;28;20124;-67
2022/01/08 09:46:16;;;;;;;5.78;1.60;;;;;;;-2.05;61.47;100030.97;5061125;28;20500;-67
2022/01/08 09:48:42;;;;;;;6.95;1.75;;;;;;;-2.54;63.81;100035.56;5064346;28;20044;-67
2022/01/08 09:51:09;;;;;;;6.28;1.85;;;;;;;-2.94;65.02;100029.13;5052149;28;20060;-66
2022/01/08 09:53:37;;;;;;;6.93;2.05;;;;;;;-3.10;65.44;100051.78;5048933;28;20080;-67
2022/01/08 09:56:04;;;;;;;7.90;2.03;;;;;;;-3.44;66.15;100037.09;5066578;28;20156;-66
2022/01/08 09:58:30;;;;;;;6.20;1.60;;;;;;;-3.48;66.95;100038.13;5063378;28;20048;-67
2022/01/08 10:00:56;;;;;;;8.60;2.03;;;;;;;-3.56;67.17;100037.56;5075224;28;20036;-68
2022/01/08 10:03:24;;;;;;;9.85;2.00;;;;;;;-3.80;68.04;100024.28;5057438;28;20055;-68
2022/01/08 10:05:55;;;;;;;9.82;2.40;;;;;;;-3.51;68.21;100068.19;5075204;28;20131;-67
2022/01/08 10:08:26;;;;;;;8.38;1.70;;;;;;;-3.09;67.53;100059.66;5073737;28;20045;-66
2022/01/08 10:10:57;;;;;;;6.90;1.60;;;;;;;-3.25;67.34;100066.44;5055070;28;20055;-67
2022/01/08 10:13:26;;;;;;;6.90;1.88;;;;;;;-3.32;67.73;100055.19;5072599;28;20119;-67
2022/01/08 10:18:39;;;;;;;6.93;2.30;;;;;;;-2.99;67.46;100046.97;5041404;28;20040;-67
2022/01/08 10:21:21;;;;;;;8.32;1.75;;;;;;;-2.75;65.04;100066.34;5071810;28;20198;-67
2022/01/08 10:23:54;;;;;;;11.63;2.58;;;;;;;-3.42;67.22;100051.16;5055462;28;20048;-67
2022/01/08 10:26:23;;;;;;;8.07;2.75;;;;;;;-2.76;65.65;100025.81;5037716;28;20086;-67
2022/01/08 10:28:53;;;;;;;8.02;2.03;;;;;;;-1.66;62.15;100060.25;5039221;28;20160;-67
2022/01/08 10:31:28;;;;;;;10.88;2.30;;;;;;;-1.64;61.01;100074.31;5056838;28;20045;-67
2022/01/08 10:33:57;;;;;;;9.57;2.40;;;;;;;-1.76;60.74;100074.81;5055299;28;20534;-67
2022/01/08 10:36:30;;;;;;;8.88;2.67;;;;;;;-2.55;63.97;100068.25;5038630;28;20048;-67
2022/01/08 10:38:58;;;;;;;7.53;1.85;;;;;;;-2.53;62.48;100018.75;5055246;28;20059;-67
2022/01/08 10:41:25;;;;;;;9.68;2.17;;;;;;;-1.57;59.85;100074.91;5054987;28;20098;-67
2022/01/08 10:44:25;;;;;;;8.45;2.33;;;;;;;-2.83;64.69;100090.44;5071627;28;20048;-67
2022/01/08 10:46:56;;;;;;;9.02;2.17;;;;;;;-3.02;65.76;100089.41;5049352;28;20060;-67
2022/01/08 10:49:32;;;;;;;10.40;2.13;;;;;;;-3.69;67.02;100067.03;5071278;28;20424;-67
2022/01/08 10:52:06;;;;;;;11.00;2.72;;;;;;;-3.54;67.13;100038.38;5071597;28;20049;-67
2022/01/08 10:54:38;;;;;;;7.65;2.00;;;;;;;-3.50;69.00;100098.13;5069563;28;20047;-67
2022/01/08 10:57:07;;;;;;;7.82;2.30;;;;;;;-3.11;66.99;100084.41;5060902;28;20173;-66
2022/01/08 10:59:34;;;;;;;7.90;2.72;;;;;;;-2.60;67.08;100086.06;5066160;28;20064;-69
2022/01/08 11:02:11;;;;;;;9.40;2.60;;;;;;;-1.70;62.30;100080.72;5068542;28;20550;-67
2022/01/08 11:04:45;;;;;;;;;;;;;;;-2.69;65.39;100088.16;5050009;28;20040;-72
2022/01/08 11:07:16;;;;;;;10.52;3.00;;;;;;;-3.23;68.01;100091.00;5068724;28;20022;-70
2022/01/08 11:09:43;;;;;;;9.40;2.80;;;;;;;-4.44;70.58;99997.34;5058514;28;20101;-68
2022/01/08 11:12:16;;;;;;;8.90;3.05;;;;;;;-3.77;71.15;100084.03;5023786;28;20036;-67
2022/01/08 11:17:18;;;;;;;10.65;2.78;;;;;;;-3.72;71.13;100061.84;5051379;28;20035;-63
2022/01/08 11:19:47;;;;;;;13.02;2.80;;;;;;;-3.71;70.99;100078.56;5069119;28;20072;-66
2022/01/08 11:22:15;;;;;;;10.45;3.35;;;;;;;-3.84;71.63;100083.38;5084216;28;20158;-66
2022/01/08 11:24:45;;;;;;;9.90;3.72;;;;;;;-4.34;73.20;100088.50;5062876;28;20304;-68
2022/01/08 11:27:11;;;;;;;10.75;3.75;;;;;;;-4.87;75.06;100040.84;5025551;28;20044;-67
2022/01/08 11:29:38;;;;;;;13.60;3.42;;;;;;;-4.77;76.04;100068.66;5057852;28;20044;-68
2022/01/08 11:32:05;;;;;;;12.73;2.88;;;;;;;-4.57;75.27;100069.84;5040417;28;20046;-67
2022/01/08 11:34:31;;;;;;;13.45;3.90;;;;;;;-4.58;75.27;100066.34;5051040;28;20043;-67
2022/01/08 11:36:58;;;;;;;11.23;3.20;;;;;;;-4.49;75.37;100081.91;5068680;28;20047;-67
2022/01/08 11:39:27;;;;;;;9.80;3.47;;;;;;;-4.46;75.04;100094.13;5057619;28;20124;-66
2022/01/08 11:41:55;;;;;;;11.20;4.32;;;;;;;-4.69;75.97;100103.59;5005429;28;20048;-65
2022/01/08 11:44:22;;;;;;;12.95;4.00;;;;;;;-4.77;76.53;100104.72;5067857;28;20080;-65
2022/01/08 11:46:49;;;;;;;10.57;4.03;;;;;;;-4.62;76.57;100126.25;5059376;28;20209;-66
2022/01/08 11:49:15;;;;;;;12.57;3.60;;;;;;;-4.98;78.20;100117.59;5084128;28;20040;-65
2022/01/08 11:51:41;;;;;;;10.55;3.60;;;;;;;-5.06;79.61;100129.25;5089627;28;20032;-65